Time;durP1;ratioP1;P1;durP2;ratioP2;P2;SDS_P1;SDS_P2;PMS_P1;PMS_P2;Temp;Humidity;BMP_temperature;BMP_pressure;BME280_temperature;BME280_humidity;BME280_pressure;Samples;Min_cycle;Max_cycle;Signal;HPM_P1;HPM_P2
2023/08/27 00:00:46;;;;;;;10.48;6.32;;;;;;;;;;5088220;28;20395;-68
2023/08/27 00:03:12;;;;;;;11.52;5.95;;;;;;;;;;5089258;28;20034;-68
2023/08/27 00:05:45;;;;;;;10.82;6.07;;;;;;;;;;5089280;28;20055;-68
2023/08/27 00:08:11;;;;;;;8.30;5.97;;;;;;;;;;5088621;28;20048;-68
2023/08/27 00:10:37;;;;;;;9.00;6.15;;;;;;;;;;5088488;28;20028;-68
2023/08/27 00:13:03;;;;;;;7.22;5.40;;;;;;;;;;5088603;28;20024;-69
2023/08/27 00:15:29;;;;;;;8.25;5.25;;;;;;;;;;5088437;28;20032;-68
2023/08/27 00:17:55;;;;;;;8.10;5.13;;;;;;;;;;5088606;28;20097;-68
2023/08/27 00:20:21;;;;;;;9.60;4.90;;;;;;;;;;5088117;28;20028;-68
2023/08/27 00:22:47;;;;;;;7.25;4.97;;;;;;;;;;5088948;28;20108;-69
2023/08/27 00:25:16;;;;;;;6.82;4.78;;;;;;;;;;5088847;28;20109;-69
2023/08/27 00:27:42;;;;;;;8.57;4.82;;;;;;;;;;5088339;28;20103;-69
2023/08/27 00:30:09;;;;;;;7.70;4.40;;;;;;;;;;5088135;28;20103;-68
2023/08/27 00:32:35;;;;;;;6.35;4.10;;;;;;;;;;5088537;28;20028;-68
2023/08/27 00:35:03;;;;;;;7.28;3.85;;;;;;;;;;5088670;28;20035;-68
2023/08/27 00:37:29;;;;;;;7.82;4.38;;;;;;;;;;5087847;28;20428;-68
2023/08/27 00:39:55;;;;;;;7.25;4.00;;;;;;;;;;5088586;28;20024;-69
2023/08/27 00:42:21;;;;;;;11.35;4.50;;;;;;;;;;5091783;28;20058;-69
2023/08/27 00:44:48;;;;;;;8.48;4.38;;;;;;;;;;5091948;28;20027;-69
2023/08/27 00:47:14;;;;;;;8.02;4.10;;;;;;;;;;5092027;28;20036;-70
2023/08/27 00:49:40;;;;;;;6.10;4.22;;;;;;;;;;5091502;28;20078;-69
2023/08/27 00:52:08;;;;;;;8.43;4.60;;;;;;;;;;5092004;28;20027;-69
2023/08/27 00:54:35;;;;;;;5.57;4.18;;;;;;;;;;5091765;28;20107;-70
2023/08/27 00:57:05;;;;;;;8.73;5.70;;;;;;;;;;5073625;28;20024;-69
2023/08/27 00:59:32;;;;;;;8.68;4.88;;;;;;;;;;5073673;28;20024;-69
2023/08/27 01:01:58;;;;;;;6.68;3.90;;;;;;;;;;5091445;28;20028;-69
2023/08/27 01:04:24;;;;;;;5.95;4.28;;;;;;;;;;5091776;28;20032;-69
2023/08/27 01:06:50;;;;;;;6.40;3.45;;;;;;;;;;5092014;28;20059;-69
2023/08/27 01:09:16;;;;;;;14.02;4.80;;;;;;;;;;5091507;28;20043;-69
2023/08/27 01:11:51;;;;;;;4.80;3.20;;;;;;;;;;5091180;28;20498;-69
2023/08/27 01:14:17;;;;;;;6.60;3.65;;;;;;;;;;5091231;28;20025;-70
2023/08/27 01:16:44;;;;;;;6.05;3.92;;;;;;;;;;5091333;28;20055;-69
2023/08/27 01:19:14;;;;;;;5.78;3.83;;;;;;;;;;5092106;28;20020;-68
2023/08/27 01:21:44;;;;;;;8.80;4.30;;;;;;;;;;5091816;28;20489;-69
2023/08/27 01:24:10;;;;;;;6.33;4.20;;;;;;;;;;5091491;28;20073;-69
2023/08/27 01:26:39;;;;;;;7.40;4.50;;;;;;;;;;5091060;28;20119;-68
2023/08/27 01:29:10;;;;;;;5.80;4.20;;;;;;;;;;5091038;28;20031;-68
2023/08/27 01:31:39;;;;;;;6.00;3.80;;;;;;;;;;5090859;28;20016;-68
2023/08/27 01:34:07;;;;;;;10.30;4.18;;;;;;;;;;5090862;28;20104;-68
2023/08/27 01:36:35;;;;;;;6.05;3.95;;;;;;;;;;5091125;28;20028;-68
2023/08/27 01:39:03;;;;;;;8.70;4.20;;;;;;;;;;5091130;28;20020;-70
2023/08/27 01:41:29;;;;;;;5.93;3.67;;;;;;;;;;5091521;28;20028;-69
2023/08/27 01:43:56;;;;;;;6.60;4.15;;;;;;;;;;5091041;28;20024;-69
2023/08/27 01:46:22;;;;;;;8.40;4.32;;;;;;;;;;5090516;28;20036;-69
2023/08/27 01:48:47;;;;;;;7.07;4.80;;;;;;;;;;5090630;28;20528;-70
2023/08/27 01:51:14;;;;;;;6.60;4.43;;;;;;;;;;5089963;28;20036;-69
2023/08/27 01:53:40;;;;;;;9.68;4.80;;;;;;;;;;5090333;28;20081;-69
2023/08/27 01:56:06;;;;;;;8.07;4.50;;;;;;;;;;5090422;28;20031;-69
2023/08/27 01:58:32;;;;;;;6.57;3.92;;;;;;;;;;5090808;28;20031;-69
2023/08/27 02:00:58;;;;;;;7.40;4.22;;;;;;;;;;5090782;28;20077;-67
2023/08/27 02:03:24;;;;;;;5.45;4.10;;;;;;;;;;5090496;28;20035;-68
2023/08/27 02:05:50;;;;;;;10.38;4.68;;;;;;;;;;5089850;28;20031;-67
2023/08/27 02:08:16;;;;;;;10.52;4.72;;;;;;;;;;5090228;28;20052;-68
2023/08/27 02:10:42;;;;;;;6.32;4.00;;;;;;;;;;5090367;28;20032;-68
2023/08/27 02:13:08;;;;;;;7.80;3.92;;;;;;;;;;5090286;28;20019;-68
2023/08/27 02:15:34;;;;;;;6.55;4.22;;;;;;;;;;5090354;28;20035;-68
2023/08/27 02:18:00;;;;;;;8.35;4.50;;;;;;;;;;5089523;28;20102;-67
2023/08/27 02:20:26;;;;;;;7.70;4.32;;;;;;;;;;5090273;28;20102;-68
2023/08/27 02:22:52;;;;;;;6.32;4.20;;;;;;;;;;5090206;28;20024;-67
2023/08/27 02:25:18;;;;;;;7.28;5.35;;;;;;;;;;5090280;28;20097;-68
2023/08/27 02:27:44;;;;;;;8.98;4.22;;;;;;;;;;5089993;28;20035;-68
2023/08/27 02:30:10;;;;;;;7.68;4.20;;;;;;;;;;5089900;28;20026;-68
2023/08/27 02:32:36;;;;;;;8.02;4.38;;;;;;;;;;5090015;28;20020;-68
2023/08/27 02:35:02;;;;;;;6.78;4.55;;;;;;;;;;5089872;28;20035;-67
2023/08/27 02:37:28;;;;;;;7.60;4.30;;;;;;;;;;5089893;28;20028;-67
2023/08/27 02:39:54;;;;;;;6.03;4.05;;;;;;;;;;5071597;28;20024;-69
2023/08/27 02:42:20;;;;;;;7.68;3.92;;;;;;;;;;5089840;28;20848;-69
2023/08/27 02:44:46;;;;;;;7.32;4.20;;;;;;;;;;5089507;28;20081;-69
2023/08/27 02:47:12;;;;;;;10.38;4.43;;;;;;;;;;5089417;28;20039;-69
2023/08/27 02:49:38;;;;;;;7.85;4.35;;;;;;;;;;5089720;28;20049;-69
2023/08/27 02:52:05;;;;;;;8.25;4.88;;;;;;;;;;5089890;28;20024;-69
2023/08/27 02:54:31;;;;;;;7.63;5.20;;;;;;;;;;5089559;28;20028;-68
2023/08/27 02:56:57;;;;;;;6.82;4.20;;;;;;;;;;5089397;28;20051;-69
2023/08/27 02:59:23;;;;;;;7.40;4.75;;;;;;;;;;5089528;28;20574;-69
2023/08/27 03:01:51;;;;;;;7.93;4.40;;;;;;;;;;5089508;28;20487;-68
2023/08/27 03:04:17;;;;;;;7.28;3.95;;;;;;;;;;5088519;28;20028;-69
2023/08/27 03:06:43;;;;;;;5.88;3.92;;;;;;;;;;5089205;28;20032;-68
2023/08/27 03:09:11;;;;;;;6.47;4.05;;;;;;;;;;5090107;28;20474;-68
2023/08/27 03:11:37;;;;;;;5.28;3.85;;;;;;;;;;5071222;28;20040;-68
2023/08/27 03:14:03;;;;;;;6.53;3.63;;;;;;;;;;5089687;28;20027;-69
2023/08/27 03:16:29;;;;;;;6.40;3.72;;;;;;;;;;5089591;28;20084;-69
2023/08/27 03:18:55;;;;;;;6.40;3.58;;;;;;;;;;5089039;28;20114;-69
2023/08/27 03:21:21;;;;;;;4.82;2.92;;;;;;;;;;5089177;28;20032;-69
2023/08/27 03:23:47;;;;;;;6.40;3.45;;;;;;;;;;5088980;28;20047;-69
2023/08/27 03:26:13;;;;;;;4.35;2.83;;;;;;;;;;5089361;28;20069;-69
2023/08/27 03:28:39;;;;;;;8.05;4.10;;;;;;;;;;5089268;28;20036;-69
2023/08/27 03:31:05;;;;;;;5.78;3.63;;;;;;;;;;5089062;28;20445;-69
2023/08/27 03:33:31;;;;;;;7.60;3.65;;;;;;;;;;5088837;28;20111;-70
2023/08/27 03:35:58;;;;;;;5.57;3.35;;;;;;;;;;5088961;28;20028;-69
2023/08/27 03:38:24;;;;;;;6.03;3.88;;;;;;;;;;5088959;28;20406;-69
2023/08/27 03:40:51;;;;;;;5.53;2.95;;;;;;;;;;5089322;28;20360;-68
2023/08/27 03:43:17;;;;;;;6.18;3.03;;;;;;;;;;5088743;28;20038;-68
2023/08/27 03:45:43;;;;;;;4.75;3.20;;;;;;;;;;5088930;28;20098;-67
2023/08/27 03:48:10;;;;;;;7.13;4.30;;;;;;;;;;5089207;28;20474;-68
2023/08/27 03:50:36;;;;;;;6.63;4.50;;;;;;;;;;5088959;28;20029;-67
2023/08/27 03:53:06;;;;;;;9.55;4.80;;;;;;;;;;5088967;28;20393;-67
2023/08/27 03:55:38;;;;;;;7.10;4.67;;;;;;;;;;5070905;28;20020;-68
2023/08/27 03:58:05;;;;;;;9.85;5.15;;;;;;;;;;5088962;28;20039;-68
2023/08/27 04:00:32;;;;;;;7.78;5.30;;;;;;;;;;5088401;28;20184;-68
2023/08/27 04:02:58;;;;;;;8.55;5.03;;;;;;;;;;5089008;28;20542;-67
2023/08/27 04:05:24;;;;;;;7.78;5.03;;;;;;;;;;5088846;28;20052;-67
2023/08/27 04:07:50;;;;;;;8.18;4.63;;;;;;;;;;5088648;28;20156;-67
2023/08/27 04:10:16;;;;;;;7.20;5.70;;;;;;;;;;5087741;28;20035;-67
2023/08/27 04:12:42;;;;;;;9.75;5.90;;;;;;;;;;5088464;28;20020;-67
2023/08/27 04:15:09;;;;;;;7.43;5.63;;;;;;;;;;5087842;28;20016;-67
2023/08/27 04:17:35;;;;;;;8.25;5.60;;;;;;;;;;5092366;28;20524;-67
2023/08/27 04:20:03;;;;;;;8.35;5.45;;;;;;;;;;5092927;28;20076;-68
2023/08/27 04:22:29;;;;;;;10.75;6.40;;;;;;;;;;5092873;28;20070;-67
2023/08/27 04:24:55;;;;;;;9.60;6.95;;;;;;;;;;5092050;28;20105;-67
2023/08/27 04:27:21;;;;;;;19.55;7.13;;;;;;;;;;5092300;28;20070;-68
2023/08/27 04:29:47;;;;;;;8.85;6.65;;;;;;;;;;5092618;28;20020;-68
2023/08/27 04:32:13;;;;;;;10.43;7.25;;;;;;;;;;5092160;28;20085;-68
2023/08/27 04:34:39;;;;;;;9.98;7.53;;;;;;;;;;5092238;28;20084;-68
2023/08/27 04:37:05;;;;;;;13.75;6.97;;;;;;;;;;5092274;28;20031;-68
2023/08/27 04:39:31;;;;;;;11.23;7.60;;;;;;;;;;5091829;28;20028;-67
2023/08/27 04:41:59;;;;;;;12.65;7.35;;;;;;;;;;5092307;28;20399;-67
2023/08/27 04:44:26;;;;;;;10.93;7.60;;;;;;;;;;5091991;28;20085;-67
2023/08/27 04:46:52;;;;;;;14.00;7.45;;;;;;;;;;5091984;28;20075;-67
2023/08/27 04:49:18;;;;;;;12.00;7.97;;;;;;;;;;5092199;28;20109;-67
2023/08/27 04:51:44;;;;;;;15.10;8.50;;;;;;;;;;5091835;28;20489;-67
2023/08/27 04:54:11;;;;;;;10.68;7.32;;;;;;;;;;5092001;28;20028;-67
2023/08/27 04:56:37;;;;;;;10.23;7.30;;;;;;;;;;5091538;28;20043;-67
2023/08/27 04:59:03;;;;;;;9.80;6.90;;;;;;;;;;5092144;28;20043;-68
2023/08/27 05:01:29;;;;;;;11.63;7.35;;;;;;;;;;5092055;28;20484;-67
2023/08/27 05:03:55;;;;;;;8.63;6.30;;;;;;;;;;5091976;28;20457;-67
2023/08/27 05:06:21;;;;;;;13.15;6.95;;;;;;;;;;5091600;28;20036;-68
2023/08/27 05:08:47;;;;;;;8.70;6.45;;;;;;;;;;5091846;28;20126;-67
2023/08/27 05:11:13;;;;;;;8.65;5.93;;;;;;;;;;5091370;28;20036;-67
2023/08/27 05:13:39;;;;;;;11.07;5.65;;;;;;;;;;5091542;28;20024;-67
2023/08/27 05:16:05;;;;;;;7.35;5.72;;;;;;;;;;5091671;28;20032;-67
2023/08/27 05:18:32;;;;;;;8.43;4.65;;;;;;;;;;5073837;28;20039;-67
2023/08/27 05:20:58;;;;;;;8.02;5.10;;;;;;;;;;5091912;28;20035;-67
2023/08/27 05:23:24;;;;;;;7.75;5.03;;;;;;;;;;5091439;28;20024;-67
2023/08/27 05:25:50;;;;;;;9.80;4.82;;;;;;;;;;5091115;28;20028;-67
2023/08/27 05:28:16;;;;;;;9.02;4.55;;;;;;;;;;5090964;28;20055;-68
2023/08/27 05:30:42;;;;;;;8.25;4.95;;;;;;;;;;5091281;28;20443;-66
2023/08/27 05:33:09;;;;;;;6.28;3.88;;;;;;;;;;5091689;28;20105;-67
2023/08/27 05:35:35;;;;;;;8.10;4.72;;;;;;;;;;5091403;28;20157;-67
2023/08/27 05:38:01;;;;;;;10.43;4.78;;;;;;;;;;5091277;28;20024;-68
2023/08/27 05:40:27;;;;;;;7.30;4.68;;;;;;;;;;5091171;28;20031;-67
2023/08/27 05:42:53;;;;;;;10.00;4.40;;;;;;;;;;5091065;28;20035;-67
2023/08/27 05:45:19;;;;;;;9.98;4.25;;;;;;;;;;5090664;28;20095;-67
2023/08/27 05:47:45;;;;;;;9.93;4.40;;;;;;;;;;5091194;28;20039;-67
2023/08/27 05:50:11;;;;;;;9.35;3.50;;;;;;;;;;5090919;28;20374;-67
2023/08/27 05:52:37;;;;;;;6.00;3.33;;;;;;;;;;5090143;28;20037;-68
2023/08/27 05:55:03;;;;;;;5.63;3.22;;;;;;;;;;5091082;28;20032;-67
2023/08/27 05:57:29;;;;;;;5.57;2.88;;;;;;;;;;5090733;28;20043;-68
2023/08/27 05:59:55;;;;;;;6.65;3.15;;;;;;;;;;5089489;28;20020;-68
2023/08/27 06:02:21;;;;;;;5.63;3.15;;;;;;;;;;5091328;28;20040;-68
2023/08/27 06:04:47;;;;;;;5.43;2.70;;;;;;;;;;5090474;28;20020;-68
2023/08/27 06:07:13;;;;;;;7.18;2.90;;;;;;;;;;5090406;28;20044;-68
2023/08/27 06:09:39;;;;;;;5.28;2.80;;;;;;;;;;5090116;28;20215;-68
2023/08/27 06:12:06;;;;;;;5.40;3.35;;;;;;;;;;5090325;28;20183;-68
2023/08/27 06:14:32;;;;;;;6.53;2.75;;;;;;;;;;5088977;28;20502;-67
2023/08/27 06:16:58;;;;;;;5.43;2.63;;;;;;;;;;5090175;28;20035;-68
2023/08/27 06:19:24;;;;;;;5.13;2.83;;;;;;;;;;5090350;28;20028;-67
2023/08/27 06:21:50;;;;;;;5.65;2.50;;;;;;;;;;5090373;28;20386;-68
2023/08/27 06:24:16;;;;;;;5.85;3.15;;;;;;;;;;5090228;28;20050;-68
2023/08/27 06:26:42;;;;;;;7.60;3.80;;;;;;;;;;5090104;28;20044;-68
2023/08/27 06:29:08;;;;;;;5.30;2.85;;;;;;;;;;5089582;28;20529;-68
2023/08/27 06:31:34;;;;;;;7.20;2.55;;;;;;;;;;5090231;28;20178;-68
2023/08/27 06:34:00;;;;;;;5.88;2.28;;;;;;;;;;5090219;28;20044;-68
2023/08/27 06:36:26;;;;;;;5.28;2.55;;;;;;;;;;5070335;28;20184;-68
2023/08/27 06:38:52;;;;;;;6.05;2.40;;;;;;;;;;5088079;28;20028;-68
2023/08/27 06:41:18;;;;;;;7.60;2.35;;;;;;;;;;5087567;28;20028;-69
2023/08/27 06:43:44;;;;;;;9.05;1.90;;;;;;;;;;5087916;28;20413;-69
2023/08/27 06:46:12;;;;;;;6.70;1.92;;;;;;;;;;5087646;28;20063;-69
2023/08/27 06:48:38;;;;;;;3.00;1.50;;;;;;;;;;5087701;28;20089;-69
2023/08/27 06:51:04;;;;;;;3.03;1.63;;;;;;;;;;5088003;28;20020;-69
2023/08/27 06:53:30;;;;;;;3.75;1.52;;;;;;;;;;5089578;28;20118;-70
2023/08/27 06:55:56;;;;;;;4.63;1.80;;;;;;;;;;5089872;28;20057;-69
2023/08/27 06:58:22;;;;;;;5.03;1.70;;;;;;;;;;5089160;28;20051;-69
2023/08/27 07:00:48;;;;;;;5.25;1.45;;;;;;;;;;5089451;28;20024;-69
2023/08/27 07:03:14;;;;;;;3.08;1.42;;;;;;;;;;5089384;28;20133;-69
2023/08/27 07:05:40;;;;;;;2.10;0.90;;;;;;;;;;5071132;28;20031;-69
2023/08/27 07:08:08;;;;;;;4.68;1.80;;;;;;;;;;5089517;28;20051;-68
2023/08/27 07:10:34;;;;;;;5.55;1.90;;;;;;;;;;5089425;28;20034;-69
2023/08/27 07:13:00;;;;;;;4.82;2.10;;;;;;;;;;5089009;28;20020;-69
2023/08/27 07:15:26;;;;;;;5.60;2.20;;;;;;;;;;5089318;28;20541;-69
2023/08/27 07:17:52;;;;;;;4.97;1.77;;;;;;;;;;5089324;28;20462;-70
2023/08/27 07:20:18;;;;;;;4.65;1.80;;;;;;;;;;5089437;28;20035;-69
2023/08/27 07:22:45;;;;;;;4.72;2.20;;;;;;;;;;5089184;28;20100;-69
2023/08/27 07:25:11;;;;;;;8.98;2.58;;;;;;;;;;5089267;28;20877;-69
2023/08/27 07:27:37;;;;;;;3.72;1.95;;;;;;;;;;5089527;28;20035;-69
2023/08/27 07:30:04;;;;;;;4.82;2.40;;;;;;;;;;5089223;28;20111;-69
2023/08/27 07:32:30;;;;;;;3.53;1.92;;;;;;;;;;5089700;28;20016;-69
2023/08/27 07:34:57;;;;;;;6.10;2.38;;;;;;;;;;5089576;28;20024;-71
2023/08/27 07:37:23;;;;;;;6.10;2.60;;;;;;;;;;5088551;28;20058;-69
2023/08/27 07:39:55;;;;;;;4.10;2.13;;;;;;;;;;5089660;28;20046;-71
2023/08/27 07:42:22;;;;;;;7.63;3.22;;;;;;;;;;5089332;28;20222;-70
2023/08/27 07:44:48;;;;;;;6.15;2.65;;;;;;;;;;5089099;28;20028;-70
2023/08/27 07:47:14;;;;;;;5.07;2.65;;;;;;;;;;5088670;28;20043;-70
2023/08/27 07:49:40;;;;;;;6.63;3.33;;;;;;;;;;5090110;28;20550;-71
2023/08/27 07:52:07;;;;;;;6.40;3.05;;;;;;;;;;5093225;28;20074;-70
2023/08/27 07:54:34;;;;;;;5.85;2.85;;;;;;;;;;5093859;28;20020;-70
2023/08/27 07:57:00;;;;;;;6.65;3.15;;;;;;;;;;5093105;28;20028;-70
2023/08/27 07:59:26;;;;;;;5.32;2.30;;;;;;;;;;5093409;28;20024;-70
2023/08/27 08:01:52;;;;;;;4.22;2.47;;;;;;;;;;5093793;28;20028;-69
2023/08/27 08:04:18;;;;;;;5.43;2.17;;;;;;;;;;5092919;28;20109;-70
2023/08/27 08:06:44;;;;;;;4.88;2.58;;;;;;;;;;5092758;28;20028;-70
2023/08/27 08:09:10;;;;;;;5.93;2.65;;;;;;;;;;5093409;28;20024;-70
2023/08/27 08:11:37;;;;;;;6.53;2.33;;;;;;;;;;5093173;28;20020;-70
2023/08/27 08:14:03;;;;;;;8.05;2.83;;;;;;;;;;5092677;28;20349;-70
2023/08/27 08:16:29;;;;;;;9.85;3.00;;;;;;;;;;5092494;28;20462;-69
2023/08/27 08:18:55;;;;;;;4.55;2.42;;;;;;;;;;5092688;28;20106;-69
2023/08/27 08:21:21;;;;;;;9.43;4.03;;;;;;;;;;5092488;28;20060;-70
2023/08/27 08:23:47;;;;;;;5.43;3.10;;;;;;;;;;5092922;28;20478;-70
2023/08/27 08:26:13;;;;;;;7.53;2.42;;;;;;;;;;5091726;28;20024;-70
2023/08/27 08:28:39;;;;;;;7.00;2.67;;;;;;;;;;5092696;28;20046;-70
2023/08/27 08:31:07;;;;;;;7.18;2.88;;;;;;;;;;5092032;28;20036;-68
2023/08/27 08:33:33;;;;;;;9.98;5.32;;;;;;;;;;5090908;28;20020;-69
2023/08/27 08:35:59;;;;;;;5.68;2.97;;;;;;;;;;5092514;28;20434;-69
2023/08/27 08:38:25;;;;;;;9.52;4.00;;;;;;;;;;5091878;28;20031;-68
2023/08/27 08:40:56;;;;;;;8.55;5.88;;;;;;;;;;5092720;28;20052;-68
2023/08/27 08:43:28;;;;;;;8.10;5.50;;;;;;;;;;5092442;28;20389;-68
2023/08/27 08:45:54;;;;;;;8.90;4.53;;;;;;;;;;5092160;28;20081;-67
2023/08/27 08:48:25;;;;;;;9.57;4.35;;;;;;;;;;5092513;28;20028;-68
2023/08/27 08:50:53;;;;;;;9.90;5.60;;;;;;;;;;5092061;28;20115;-68
2023/08/27 08:53:19;;;;;;;5.45;3.08;;;;;;;;;;5073885;28;20051;-68
2023/08/27 08:55:46;;;;;;;7.22;3.10;;;;;;;;;;5091992;28;20028;-67
2023/08/27 08:58:13;;;;;;;8.85;4.82;;;;;;;;;;5092342;28;20047;-67
2023/08/27 09:00:40;;;;;;;8.65;3.78;;;;;;;;;;5073322;28;20854;-68
2023/08/27 09:03:06;;;;;;;6.35;3.53;;;;;;;;;;5091350;28;20032;-67
2023/08/27 09:05:34;;;;;;;5.47;3.33;;;;;;;;;;5091607;28;20028;-68
2023/08/27 09:08:00;;;;;;;5.28;2.55;;;;;;;;;;5091198;28;20044;-67
2023/08/27 09:10:27;;;;;;;6.28;2.47;;;;;;;;;;5092265;28;20063;-68
2023/08/27 09:12:57;;;;;;;7.45;3.10;;;;;;;;;;5092257;28;20055;-68
2023/08/27 09:15:23;;;;;;;10.38;2.85;;;;;;;;;;5091704;28;20099;-68
2023/08/27 09:17:49;;;;;;;6.68;2.72;;;;;;;;;;5091896;28;20126;-68
2023/08/27 09:20:16;;;;;;;7.15;2.15;;;;;;;;;;5091399;28;20051;-68
2023/08/27 09:22:42;;;;;;;8.20;2.88;;;;;;;;;;5091163;28;20023;-68
2023/08/27 09:25:09;;;;;;;4.35;2.25;;;;;;;;;;5091184;28;20032;-68
2023/08/27 09:27:35;;;;;;;8.82;2.78;;;;;;;;;;5090856;28;20044;-68
2023/08/27 09:30:03;;;;;;;7.78;3.60;;;;;;;;;;5091249;28;20066;-68
2023/08/27 09:32:29;;;;;;;3.63;2.17;;;;;;;;;;5091913;28;20056;-67
2023/08/27 09:34:59;;;;;;;6.30;2.75;;;;;;;;;;5091732;28;20056;-69
2023/08/27 09:37:28;;;;;;;5.78;2.95;;;;;;;;;;5091105;28;20081;-67
2023/08/27 09:39:55;;;;;;;7.80;3.17;;;;;;;;;;5090764;28;20024;-68
2023/08/27 09:42:22;;;;;;;6.85;3.58;;;;;;;;;;5090906;28;20024;-68
2023/08/27 09:44:54;;;;;;;5.70;2.65;;;;;;;;;;5090770;28;20024;-68
2023/08/27 09:47:33;;;;;;;4.57;2.00;;;;;;;;;;5090800;28;20055;-68
2023/08/27 09:50:14;;;;;;;7.53;2.30;;;;;;;;;;5090605;28;20020;-68
2023/08/27 09:52:41;;;;;;;5.78;2.15;;;;;;;;;;5091161;28;20168;-67
2023/08/27 09:55:16;;;;;;;4.97;2.47;;;;;;;;;;5090700;28;20363;-68
2023/08/27 09:57:53;;;;;;;6.78;2.92;;;;;;;;;;5090737;28;20081;-68
2023/08/27 10:00:21;;;;;;;8.15;2.25;;;;;;;;;;5090442;28;20059;-68
2023/08/27 10:02:50;;;;;;;7.25;2.38;;;;;;;;;;5090512;28;20487;-68
2023/08/27 10:05:16;;;;;;;5.13;1.83;;;;;;;;;;5090135;28;20433;-69
2023/08/27 10:07:42;;;;;;;5.15;1.98;;;;;;;;;;5089655;28;20052;-68
2023/08/27 10:10:10;;;;;;;3.45;1.48;;;;;;;;;;5072096;28;20024;-68
2023/08/27 10:12:36;;;;;;;4.10;1.60;;;;;;;;;;5090163;28;20112;-69
2023/08/27 10:15:05;;;;;;;4.53;1.08;;;;;;;;;;5090040;28;20047;-68
2023/08/27 10:17:31;;;;;;;3.90;1.65;;;;;;;;;;5090357;28;20478;-69
2023/08/27 10:19:59;;;;;;;4.28;1.65;;;;;;;;;;5089747;28;20073;-68
2023/08/27 10:22:25;;;;;;;6.38;1.92;;;;;;;;;;5090110;28;20076;-69
2023/08/27 10:24:51;;;;;;;7.70;2.17;;;;;;;;;;5090476;28;20085;-69
2023/08/27 10:27:17;;;;;;;7.53;2.05;;;;;;;;;;5089974;28;20042;-68
2023/08/27 10:29:45;;;;;;;7.20;1.20;;;;;;;;;;5090447;28;20103;-68
2023/08/27 10:32:11;;;;;;;4.43;1.50;;;;;;;;;;5089566;28;20077;-68
2023/08/27 10:34:37;;;;;;;7.38;1.20;;;;;;;;;;5090306;28;20034;-68
2023/08/27 10:37:05;;;;;;;5.57;1.30;;;;;;;;;;5090613;28;20035;-69
2023/08/27 10:39:33;;;;;;;2.70;0.70;;;;;;;;;;5089688;28;20028;-68
2023/08/27 10:41:59;;;;;;;3.40;0.98;;;;;;;;;;5089903;28;20039;-69
2023/08/27 10:44:25;;;;;;;1.25;0.80;;;;;;;;;;5089354;28;20032;-68
2023/08/27 10:47:08;;;;;;;7.20;0.70;;;;;;;;;;5089676;28;20036;-68
2023/08/27 10:49:37;;;;;;;3.47;0.80;;;;;;;;;;5089835;28;20059;-68
2023/08/27 10:52:20;;;;;;;2.83;0.80;;;;;;;;;;5089745;28;20020;-67
2023/08/27 10:54:46;;;;;;;1.73;0.75;;;;;;;;;;5089547;28;20488;-68
2023/08/27 10:57:17;;;;;;;4.28;0.95;;;;;;;;;;5071000;28;20494;-68
2023/08/27 10:59:43;;;;;;;4.82;1.20;;;;;;;;;;5089759;28;20020;-68
2023/08/27 11:02:09;;;;;;;2.45;1.10;;;;;;;;;;5089251;28;20050;-69
2023/08/27 11:04:36;;;;;;;2.58;0.82;;;;;;;;;;5089797;28;20134;-68
2023/08/27 11:07:10;;;;;;;3.50;1.20;;;;;;;;;;5089616;28;20028;-69
2023/08/27 11:09:36;;;;;;;4.03;1.00;;;;;;;;;;5089479;28;20125;-69
2023/08/27 11:12:04;;;;;;;2.47;0.75;;;;;;;;;;5089678;28;20338;-68
2023/08/27 11:14:37;;;;;;;2.47;0.85;;;;;;;;;;5089518;28;20095;-68
2023/08/27 11:17:04;;;;;;;3.65;1.00;;;;;;;;;;5089950;28;20031;-69
2023/08/27 11:19:35;;;;;;;3.25;0.80;;;;;;;;;;5071129;28;20393;-68
2023/08/27 11:22:07;;;;;;;3.28;1.08;;;;;;;;;;5089253;28;20024;-69
2023/08/27 11:24:34;;;;;;;3.60;0.90;;;;;;;;;;5088849;28;20112;-68
2023/08/27 11:27:02;;;;;;;2.72;1.00;;;;;;;;;;5089784;28;20028;-69
2023/08/27 11:29:29;;;;;;;4.05;1.30;;;;;;;;;;5089652;28;20024;-68
2023/08/27 11:31:56;;;;;;;3.30;1.10;;;;;;;;;;5088853;28;20012;-68
2023/08/27 11:34:24;;;;;;;4.50;0.90;;;;;;;;;;5089377;28;20024;-69
2023/08/27 11:36:54;;;;;;;5.40;1.52;;;;;;;;;;5089379;28;20024;-69
2023/08/27 11:39:20;;;;;;;7.28;1.98;;;;;;;;;;5089242;28;20028;-68
2023/08/27 11:41:46;;;;;;;4.97;2.10;;;;;;;;;;5088852;28;20056;-69
2023/08/27 11:44:13;;;;;;;4.75;1.35;;;;;;;;;;5089449;28;20056;-69
2023/08/27 11:46:43;;;;;;;4.03;1.25;;;;;;;;;;5089016;28;20028;-69
2023/08/27 11:49:12;;;;;;;5.78;1.33;;;;;;;;;;5089083;28;20028;-69
2023/08/27 11:51:39;;;;;;;3.30;1.35;;;;;;;;;;5089503;28;20026;-69
2023/08/27 11:54:10;;;;;;;3.85;1.40;;;;;;;;;;5089322;28;20141;-69
2023/08/27 11:56:36;;;;;;;3.90;1.35;;;;;;;;;;5088809;28;20032;-69
2023/08/27 11:59:04;;;;;;;2.45;1.20;;;;;;;;;;5070422;28;20020;-69
2023/08/27 12:01:30;;;;;;;3.10;1.05;;;;;;;;;;5088515;28;20116;-68
2023/08/27 12:03:56;;;;;;;3.47;1.33;;;;;;;;;;5088846;28;20024;-67
2023/08/27 12:06:28;;;;;;;3.45;1.25;;;;;;;;;;5088930;28;20490;-67
2023/08/27 12:08:54;;;;;;;4.03;1.63;;;;;;;;;;5089257;28;20588;-68
2023/08/27 12:11:26;;;;;;;6.00;1.60;;;;;;;;;;5089105;28;20028;-68
2023/08/27 12:13:55;;;;;;;4.00;1.30;;;;;;;;;;5088892;28;20069;-69
2023/08/27 12:16:31;;;;;;;3.80;1.52;;;;;;;;;;5088515;28;20035;-68
2023/08/27 12:19:05;;;;;;;2.85;1.20;;;;;;;;;;5088488;28;20047;-69
2023/08/27 12:21:36;;;;;;;4.20;1.35;;;;;;;;;;5088312;28;20063;-68
2023/08/27 12:24:02;;;;;;;4.32;1.45;;;;;;;;;;5088416;28;20036;-68
2023/08/27 12:26:28;;;;;;;4.45;1.42;;;;;;;;;;5070364;28;20085;-68
2023/08/27 12:28:54;;;;;;;3.08;1.65;;;;;;;;;;5088518;28;20898;-68
2023/08/27 12:31:25;;;;;;;3.83;1.88;;;;;;;;;;5088954;28;20050;-69
2023/08/27 12:33:57;;;;;;;3.03;1.42;;;;;;;;;;5088580;28;20024;-67
2023/08/27 12:36:26;;;;;;;2.72;1.15;;;;;;;;;;5090680;28;20390;-69
2023/08/27 12:38:52;;;;;;;3.92;0.98;;;;;;;;;;5092452;28;20028;-67
2023/08/27 12:41:21;;;;;;;4.30;1.10;;;;;;;;;;5092010;28;20394;-68
2023/08/27 12:43:47;;;;;;;1.67;0.90;;;;;;;;;;5092269;28;20032;-68
2023/08/27 12:46:13;;;;;;;4.18;1.05;;;;;;;;;;5091762;28;20028;-67
2023/08/27 12:48:39;;;;;;;4.60;1.67;;;;;;;;;;5091801;28;20470;-67
2023/08/27 12:51:05;;;;;;;2.65;1.42;;;;;;;;;;5091813;28;20012;-67
2023/08/27 12:53:31;;;;;;;2.35;1.13;;;;;;;;;;5073609;28;20414;-69
2023/08/27 12:55:57;;;;;;;3.80;1.48;;;;;;;;;;5092240;28;20029;-69
2023/08/27 12:58:23;;;;;;;1.98;1.13;;;;;;;;;;5091716;28;20051;-69
2023/08/27 13:00:49;;;;;;;2.30;0.95;;;;;;;;;;5073511;28;20084;-69
2023/08/27 13:03:15;;;;;;;2.35;1.02;;;;;;;;;;5092187;28;20541;-68
2023/08/27 13:05:41;;;;;;;2.60;1.20;;;;;;;;;;5092371;28;20097;-68
2023/08/27 13:08:07;;;;;;;2.38;1.23;;;;;;;;;;5091332;28;20569;-68
2023/08/27 13:10:33;;;;;;;2.78;1.00;;;;;;;;;;5091685;28;20132;-67
2023/08/27 13:12:59;;;;;;;1.75;0.70;;;;;;;;;;5091367;28;20036;-67
2023/08/27 13:15:25;;;;;;;1.63;0.75;;;;;;;;;;5091787;28;20494;-68
2023/08/27 13:17:51;;;;;;;1.33;0.70;;;;;;;;;;5091380;28;20158;-67
2023/08/27 13:20:17;;;;;;;0.82;0.40;;;;;;;;;;5092211;28;20135;-67
2023/08/27 13:22:43;;;;;;;0.68;0.40;;;;;;;;;;5091888;28;20081;-67
2023/08/27 13:25:11;;;;;;;1.33;0.70;;;;;;;;;;5091144;28;20024;-68
2023/08/27 13:27:37;;;;;;;1.50;0.52;;;;;;;;;;5091385;28;20070;-68
2023/08/27 13:30:04;;;;;;;4.72;1.17;;;;;;;;;;5091228;28;20024;-68
2023/08/27 13:32:30;;;;;;;1.48;0.50;;;;;;;;;;5091322;28;20016;-67
2023/08/27 13:34:56;;;;;;;0.95;0.50;;;;;;;;;;5091440;28;20070;-68
2023/08/27 13:37:22;;;;;;;0.75;0.38;;;;;;;;;;5090614;28;20443;-69
2023/08/27 13:39:48;;;;;;;2.10;0.60;;;;;;;;;;5089780;28;20375;-69
2023/08/27 13:42:14;;;;;;;2.10;0.55;;;;;;;;;;5089673;28;20028;-69
2023/08/27 13:44:40;;;;;;;0.80;0.35;;;;;;;;;;5089181;28;20020;-67
2023/08/27 13:47:06;;;;;;;2.28;0.52;;;;;;;;;;5088490;28;20063;-67
2023/08/27 13:49:32;;;;;;;1.45;0.70;;;;;;;;;;5089261;28;20509;-67
2023/08/27 13:51:58;;;;;;;1.17;0.50;;;;;;;;;;5089799;28;20032;-67
2023/08/27 13:54:24;;;;;;;1.30;0.45;;;;;;;;;;5090506;28;20341;-69
2023/08/27 13:56:50;;;;;;;1.02;0.50;;;;;;;;;;5090794;28;20024;-67
2023/08/27 13:59:16;;;;;;;3.28;0.40;;;;;;;;;;5090401;28;20024;-67
2023/08/27 14:01:42;;;;;;;3.88;0.68;;;;;;;;;;5090640;28;20497;-67
2023/08/27 14:04:08;;;;;;;3.35;0.50;;;;;;;;;;5090279;28;20028;-68
2023/08/27 14:06:35;;;;;;;2.38;0.55;;;;;;;;;;5090717;28;20031;-66
2023/08/27 14:09:01;;;;;;;1.98;0.55;;;;;;;;;;5090486;28;20147;-67
2023/08/27 14:11:27;;;;;;;1.10;0.50;;;;;;;;;;5090477;28;20071;-68
2023/08/27 14:13:53;;;;;;;2.13;0.52;;;;;;;;;;5089977;28;20052;-67
2023/08/27 14:16:19;;;;;;;1.90;0.80;;;;;;;;;;5090690;28;20039;-67
2023/08/27 14:18:45;;;;;;;2.17;0.82;;;;;;;;;;5090822;28;20089;-68
2023/08/27 14:21:11;;;;;;;2.05;0.60;;;;;;;;;;5090185;28;20059;-67
2023/08/27 14:23:38;;;;;;;3.35;0.70;;;;;;;;;;5090431;28;20038;-67
2023/08/27 14:26:04;;;;;;;1.77;0.68;;;;;;;;;;5090147;28;20051;-66
2023/08/27 14:28:30;;;;;;;1.50;0.77;;;;;;;;;;5089942;28;20059;-67
2023/08/27 14:30:56;;;;;;;1.77;0.45;;;;;;;;;;5090082;28;20470;-69
2023/08/27 14:33:22;;;;;;;3.17;0.60;;;;;;;;;;5090288;28;20027;-67
2023/08/27 14:35:48;;;;;;;4.07;0.90;;;;;;;;;;5090535;28;20457;-68
2023/08/27 14:38:14;;;;;;;1.92;0.90;;;;;;;;;;5071759;28;20020;-69
2023/08/27 14:40:40;;;;;;;1.58;0.52;;;;;;;;;;5089944;28;20466;-67